aviador You're here:

LZIB Decoded Metar

BRATISLAVA in SLOVAKIA
Report Time2017-09-20 12:30:00
UTC Time2017-09-20 13:02:46
Flight Rules vfr VFR
Wind330° at 16 kt
W.Decomp.*RWY 31: 15.3 kt HW 4.7 kt RCW
RWY 04: 4.7 kt HW 15.3 kt LCW
W.Rank330° ranks 4
Current wind is above 330° avg. (9.4)
Visibility9999 m
Phenomena:N/A
Clouds:Few 021 Hf
Scattered 026 Hf
Broken 053 Hf
Expected CloudBase > 2,000 ft AGL from Temp-Dew spread
Ceiling5,300 ft
Temp13°C (ISA -1)
Dew Point08°C (72% RH)
AAT6.8°C
QNH1015 hPa
Density Alt384 ft
Elevation440 ft
Report Wrong Elevation
Raw Report
LZIB 201230Z 33016KT 9999 FEW021 SCT026 BKN053 13/08 Q1015
NOSIG=

Extra information for LZIB:More info

Metar Taf Metar & Taf Last 4 Metars F.Rules Stats Wind Profile Meteogram Temp Stats Airport Information Weather charts Add Link Nearby VenuesMetar ALERT Operation Metar Decoded Social comments